DIESL EDXW-EHAM
Flight info
| Callsign | DIESL |
|---|---|
| Flight time | 1h 22m |
| Altitude | 12000 |
| Route | OLDIP1B OLDIP DCT ROCZO DCT LAZOQ P174 KUBAT T200 BLUFA |
| Aircraft | DA42/L-SBDFGRY/S |
Departure
| Time | 2026-04-27 19:14 |
|---|---|
| Airport | Westerland Sylt Airport (EDXW) |
Arrival
| Time | 2026-04-27 20:36 |
|---|---|
| Airport | Amsterdam Airport Schiphol (EHAM) |
| Time | Latitude | Longitude | Altitude | Speed | Heading |
|---|---|---|---|---|---|
| 2026-04-27 18:49 | 54.91365 | 8.32449 | 22 ft | 0 kts | 262° |
| 2026-04-27 19:05 | 54.91363 | 8.32434 | 22 ft | 7 kts | 245° |
| 2026-04-27 19:05 | 54.91296 | 8.32443 | 22 ft | 11 kts | 158° |
| 2026-04-27 19:06 | 54.91226 | 8.32516 | 22 ft | 12 kts | 137° |
| 2026-04-27 19:06 | 54.91164 | 8.32627 | 22 ft | 13 kts | 138° |
| 2026-04-27 19:06 | 54.91091 | 8.32726 | 22 ft | 12 kts | 118° |
| 2026-04-27 19:06 | 54.91064 | 8.32858 | 24 ft | 10 kts | 113° |
| 2026-04-27 19:07 | 54.91033 | 8.32958 | 27 ft | 10 kts | 128° |
| 2026-04-27 19:07 | 54.90978 | 8.33065 | 28 ft | 14 kts | 136° |
| 2026-04-27 19:07 | 54.90881 | 8.33175 | 30 ft | 18 kts | 157° |
| 2026-04-27 19:07 | 54.90759 | 8.33221 | 30 ft | 18 kts | 175° |
| 2026-04-27 19:08 | 54.90634 | 8.33236 | 30 ft | 18 kts | 175° |
| 2026-04-27 19:08 | 54.90509 | 8.33266 | 29 ft | 18 kts | 163° |
| 2026-04-27 19:08 | 54.90396 | 8.33362 | 28 ft | 18 kts | 145° |
| 2026-04-27 19:08 | 54.90312 | 8.33521 | 27 ft | 17 kts | 124° |
| 2026-04-27 19:09 | 54.90264 | 8.33704 | 27 ft | 16 kts | 104° |
| 2026-04-27 19:09 | 54.90247 | 8.33896 | 28 ft | 17 kts | 97° |
| 2026-04-27 19:09 | 54.90236 | 8.34115 | 28 ft | 17 kts | 84° |
| 2026-04-27 19:09 | 54.90251 | 8.34299 | 28 ft | 14 kts | 80° |
| 2026-04-27 19:10 | 54.90274 | 8.34508 | 29 ft | 20 kts | 79° |
| 2026-04-27 19:10 | 54.90298 | 8.34757 | 30 ft | 19 kts | 78° |
| 2026-04-27 19:10 | 54.90318 | 8.34960 | 30 ft | 15 kts | 79° |
| 2026-04-27 19:10 | 54.90331 | 8.35053 | 30 ft | 7 kts | 68° |
| 2026-04-27 19:11 | 54.90333 | 8.35060 | 30 ft | 0 kts | 40° |
| 2026-04-27 19:12 | 54.90334 | 8.35061 | 30 ft | 0 kts | 40° |
| 2026-04-27 19:12 | 54.90359 | 8.35123 | 30 ft | 15 kts | 54° |
| 2026-04-27 19:12 | 54.90428 | 8.35158 | 31 ft | 6 kts | 325° |
| 2026-04-27 19:13 | 54.90441 | 8.35142 | 31 ft | 18 kts | 324° |
| 2026-04-27 19:13 | 54.90721 | 8.34794 | 33 ft | 75 kts | 327° |
| 2026-04-27 19:13 | 54.91179 | 8.34283 | 267 ft | 81 kts | 332° |
| 2026-04-27 19:13 | 54.91660 | 8.33728 | 625 ft | 84 kts | 326° |
| 2026-04-27 19:14 | 54.92119 | 8.33104 | 983 ft | 84 kts | 328° |
| 2026-04-27 19:14 | 54.92598 | 8.32481 | 1286 ft | 87 kts | 329° |
| 2026-04-27 19:14 | 54.93094 | 8.31853 | 1584 ft | 89 kts | 331° |
| 2026-04-27 19:14 | 54.93608 | 8.31208 | 1886 ft | 93 kts | 331° |
| 2026-04-27 19:15 | 54.93962 | 8.30770 | 2097 ft | 95 kts | 331° |
| 2026-04-27 19:15 | 54.94508 | 8.30091 | 2412 ft | 97 kts | 331° |
| 2026-04-27 19:15 | 54.95061 | 8.29404 | 2737 ft | 99 kts | 331° |
| 2026-04-27 19:15 | 54.95623 | 8.28707 | 3059 ft | 99 kts | 331° |
| 2026-04-27 19:16 | 54.96184 | 8.28011 | 3390 ft | 99 kts | 331° |
| 2026-04-27 19:16 | 54.96555 | 8.27547 | 3607 ft | 99 kts | 331° |
| 2026-04-27 19:16 | 54.97203 | 8.26402 | 4045 ft | 104 kts | 294° |
| 2026-04-27 19:16 | 54.97190 | 8.25160 | 4371 ft | 106 kts | 249° |
| 2026-04-27 19:17 | 54.96784 | 8.24084 | 4689 ft | 107 kts | 234° |
| 2026-04-27 19:17 | 54.96328 | 8.23068 | 5013 ft | 106 kts | 234° |
| 2026-04-27 19:17 | 54.95861 | 8.22075 | 5338 ft | 105 kts | 233° |
| 2026-04-27 19:17 | 54.95391 | 8.21111 | 5642 ft | 106 kts | 233° |
| 2026-04-27 19:18 | 54.94913 | 8.20138 | 5968 ft | 106 kts | 233° |
| 2026-04-27 19:18 | 54.94433 | 8.19165 | 6287 ft | 106 kts | 233° |
| 2026-04-27 19:18 | 54.93950 | 8.18194 | 6597 ft | 106 kts | 233° |
| 2026-04-27 19:18 | 54.93462 | 8.17218 | 6906 ft | 106 kts | 234° |
| 2026-04-27 19:19 | 54.92977 | 8.16252 | 7205 ft | 106 kts | 233° |
| 2026-04-27 19:19 | 54.92486 | 8.15274 | 7486 ft | 110 kts | 233° |
| 2026-04-27 19:19 | 54.91959 | 8.14212 | 7706 ft | 117 kts | 234° |
| 2026-04-27 19:19 | 54.91423 | 8.13133 | 8000 ft | 118 kts | 233° |
| 2026-04-27 19:20 | 54.90884 | 8.12042 | 8304 ft | 119 kts | 233° |
| 2026-04-27 19:20 | 54.90344 | 8.10949 | 8606 ft | 119 kts | 233° |
| 2026-04-27 19:20 | 54.89804 | 8.09849 | 8909 ft | 120 kts | 233° |
| 2026-04-27 19:20 | 54.89265 | 8.08743 | 9210 ft | 120 kts | 233° |
| 2026-04-27 19:21 | 54.88723 | 8.07629 | 9516 ft | 121 kts | 233° |
| 2026-04-27 19:21 | 54.88182 | 8.06511 | 9823 ft | 121 kts | 233° |
| 2026-04-27 19:21 | 54.87640 | 8.05388 | 10135 ft | 122 kts | 233° |
| 2026-04-27 19:21 | 54.87097 | 8.04258 | 10424 ft | 122 kts | 233° |
| 2026-04-27 19:22 | 54.86552 | 8.03122 | 10706 ft | 123 kts | 233° |
| 2026-04-27 19:22 | 54.85970 | 8.02028 | 10972 ft | 126 kts | 217° |
| 2026-04-27 19:22 | 54.85143 | 8.01689 | 11265 ft | 125 kts | 171° |
| 2026-04-27 19:22 | 54.84342 | 8.02256 | 11556 ft | 124 kts | 160° |
| 2026-04-27 19:23 | 54.83489 | 8.02219 | 11841 ft | 124 kts | 206° |
| 2026-04-27 19:23 | 54.82879 | 8.01205 | 12113 ft | 123 kts | 244° |
| 2026-04-27 19:23 | 54.82294 | 8.00111 | 12324 ft | 133 kts | 210° |
| 2026-04-27 19:23 | 54.81361 | 7.99403 | 12337 ft | 154 kts | 204° |
| 2026-04-27 19:24 | 54.80336 | 7.98695 | 12336 ft | 168 kts | 203° |
| 2026-04-27 19:24 | 54.79214 | 7.97918 | 12338 ft | 178 kts | 203° |
| 2026-04-27 19:24 | 54.78044 | 7.97102 | 12333 ft | 184 kts | 203° |
| 2026-04-27 19:24 | 54.76843 | 7.96264 | 12333 ft | 187 kts | 203° |
| 2026-04-27 19:25 | 54.75627 | 7.95413 | 12338 ft | 189 kts | 203° |
| 2026-04-27 19:25 | 54.74399 | 7.94554 | 12336 ft | 191 kts | 203° |
| 2026-04-27 19:25 | 54.73167 | 7.93691 | 12337 ft | 192 kts | 203° |
| 2026-04-27 19:25 | 54.71925 | 7.92819 | 12336 ft | 192 kts | 203° |
| 2026-04-27 19:26 | 54.70681 | 7.91947 | 12334 ft | 193 kts | 202° |
| 2026-04-27 19:26 | 54.69437 | 7.91077 | 12337 ft | 193 kts | 202° |
| 2026-04-27 19:26 | 54.68195 | 7.90209 | 12340 ft | 193 kts | 202° |
| 2026-04-27 19:26 | 54.66950 | 7.89340 | 12341 ft | 193 kts | 202° |
| 2026-04-27 19:27 | 54.65708 | 7.88472 | 12336 ft | 193 kts | 202° |
| 2026-04-27 19:27 | 54.64467 | 7.87605 | 12336 ft | 193 kts | 202° |
| 2026-04-27 19:27 | 54.63221 | 7.86737 | 12338 ft | 193 kts | 202° |
| 2026-04-27 19:27 | 54.61977 | 7.85871 | 12342 ft | 193 kts | 202° |
| 2026-04-27 19:28 | 54.60733 | 7.85002 | 12333 ft | 193 kts | 202° |
| 2026-04-27 19:28 | 54.59490 | 7.84136 | 12336 ft | 193 kts | 202° |
| 2026-04-27 19:28 | 54.58242 | 7.83269 | 12339 ft | 193 kts | 202° |
| 2026-04-27 19:28 | 54.57000 | 7.82405 | 12336 ft | 193 kts | 202° |
| 2026-04-27 19:29 | 54.55756 | 7.81540 | 12332 ft | 193 kts | 202° |
| 2026-04-27 19:29 | 54.54512 | 7.80676 | 12337 ft | 193 kts | 202° |
| 2026-04-27 19:29 | 54.53252 | 7.79802 | 12337 ft | 193 kts | 202° |
| 2026-04-27 19:29 | 54.52022 | 7.78949 | 12336 ft | 193 kts | 202° |
| 2026-04-27 19:30 | 54.50775 | 7.78085 | 12332 ft | 193 kts | 202° |
| 2026-04-27 19:30 | 54.49514 | 7.77212 | 12337 ft | 193 kts | 202° |
| 2026-04-27 19:30 | 54.48283 | 7.76360 | 12339 ft | 193 kts | 202° |
| 2026-04-27 19:30 | 54.47019 | 7.75486 | 12330 ft | 193 kts | 202° |
| 2026-04-27 19:31 | 54.45773 | 7.74625 | 12334 ft | 193 kts | 202° |
| 2026-04-27 19:31 | 54.44526 | 7.73763 | 12338 ft | 193 kts | 202° |
| 2026-04-27 19:31 | 54.43279 | 7.72902 | 12330 ft | 193 kts | 202° |
| 2026-04-27 19:31 | 54.42037 | 7.72045 | 12329 ft | 193 kts | 202° |
| 2026-04-27 19:32 | 54.40796 | 7.71191 | 12335 ft | 193 kts | 202° |
| 2026-04-27 19:32 | 54.39545 | 7.70328 | 12336 ft | 193 kts | 202° |
| 2026-04-27 19:32 | 54.38300 | 7.69472 | 12330 ft | 193 kts | 202° |
| 2026-04-27 19:32 | 54.37057 | 7.68617 | 12334 ft | 193 kts | 202° |
| 2026-04-27 19:33 | 54.35826 | 7.67769 | 12330 ft | 192 kts | 202° |
| 2026-04-27 19:33 | 54.34987 | 7.67192 | 12331 ft | 192 kts | 202° |
| 2026-04-27 19:33 | 54.33341 | 7.66061 | 12334 ft | 192 kts | 202° |
| 2026-04-27 19:33 | 54.32097 | 7.65209 | 12330 ft | 192 kts | 202° |
| 2026-04-27 19:34 | 54.30838 | 7.64346 | 12335 ft | 192 kts | 202° |
| 2026-04-27 19:34 | 54.29599 | 7.63496 | 12332 ft | 192 kts | 202° |
| 2026-04-27 19:34 | 54.28356 | 7.62645 | 12334 ft | 192 kts | 202° |
| 2026-04-27 19:34 | 54.27131 | 7.61807 | 12333 ft | 192 kts | 202° |
| 2026-04-27 19:35 | 54.25889 | 7.60957 | 12331 ft | 192 kts | 202° |
| 2026-04-27 19:35 | 54.24645 | 7.60106 | 12329 ft | 192 kts | 202° |
| 2026-04-27 19:35 | 54.23409 | 7.59262 | 12332 ft | 192 kts | 201° |
| 2026-04-27 19:35 | 54.22165 | 7.58413 | 12330 ft | 192 kts | 201° |
| 2026-04-27 19:36 | 54.20923 | 7.57566 | 12334 ft | 192 kts | 202° |
| 2026-04-27 19:36 | 54.19686 | 7.56723 | 12334 ft | 192 kts | 201° |
| 2026-04-27 19:36 | 54.18447 | 7.55879 | 12323 ft | 192 kts | 201° |
| 2026-04-27 19:36 | 54.17209 | 7.55035 | 12326 ft | 191 kts | 201° |
| 2026-04-27 19:37 | 54.15973 | 7.54194 | 12326 ft | 191 kts | 201° |
| 2026-04-27 19:37 | 54.14738 | 7.53355 | 12325 ft | 191 kts | 201° |
| 2026-04-27 19:37 | 54.13500 | 7.52514 | 12325 ft | 191 kts | 201° |
| 2026-04-27 19:37 | 54.12260 | 7.51671 | 12326 ft | 191 kts | 201° |
| 2026-04-27 19:38 | 54.11023 | 7.50832 | 12331 ft | 191 kts | 201° |
| 2026-04-27 19:38 | 54.09785 | 7.49993 | 12329 ft | 191 kts | 201° |
| 2026-04-27 19:38 | 54.08549 | 7.49155 | 12330 ft | 191 kts | 201° |
| 2026-04-27 19:38 | 54.07297 | 7.48309 | 12324 ft | 192 kts | 201° |
| 2026-04-27 19:39 | 54.06058 | 7.47469 | 12325 ft | 191 kts | 201° |
| 2026-04-27 19:39 | 54.04821 | 7.46631 | 12323 ft | 191 kts | 201° |
| 2026-04-27 19:39 | 54.03586 | 7.45796 | 12327 ft | 191 kts | 201° |
| 2026-04-27 19:39 | 54.02349 | 7.44960 | 12327 ft | 191 kts | 201° |
| 2026-04-27 19:40 | 54.01116 | 7.44128 | 12328 ft | 191 kts | 201° |
| 2026-04-27 19:40 | 53.99879 | 7.43294 | 12326 ft | 191 kts | 201° |
| 2026-04-27 19:40 | 53.98644 | 7.42460 | 12326 ft | 191 kts | 201° |
| 2026-04-27 19:40 | 53.97408 | 7.41627 | 12325 ft | 191 kts | 201° |
| 2026-04-27 19:41 | 53.96175 | 7.40797 | 12327 ft | 191 kts | 201° |
| 2026-04-27 19:41 | 53.94939 | 7.39965 | 12324 ft | 191 kts | 201° |
| 2026-04-27 19:41 | 53.93696 | 7.39129 | 12205 ft | 196 kts | 201° |
| 2026-04-27 19:41 | 53.92389 | 7.38248 | 11936 ft | 206 kts | 201° |
| 2026-04-27 19:42 | 53.91043 | 7.37341 | 11684 ft | 210 kts | 201° |
| 2026-04-27 19:42 | 53.90140 | 7.36734 | 11523 ft | 211 kts | 201° |
| 2026-04-27 19:42 | 53.88766 | 7.35812 | 11266 ft | 213 kts | 200° |
| 2026-04-27 19:42 | 53.87365 | 7.34873 | 11020 ft | 213 kts | 200° |
| 2026-04-27 19:43 | 53.85997 | 7.33959 | 10797 ft | 212 kts | 200° |
| 2026-04-27 19:43 | 53.84615 | 7.33033 | 10333 ft | 213 kts | 200° |
| 2026-04-27 19:43 | 53.83252 | 7.32116 | 9807 ft | 209 kts | 200° |
| 2026-04-27 19:43 | 53.81911 | 7.31221 | 9268 ft | 205 kts | 200° |
| 2026-04-27 19:44 | 53.80588 | 7.30340 | 8736 ft | 203 kts | 200° |
| 2026-04-27 19:44 | 53.79279 | 7.29468 | 8227 ft | 201 kts | 200° |
| 2026-04-27 19:44 | 53.77980 | 7.28603 | 7718 ft | 200 kts | 200° |
| 2026-04-27 19:44 | 53.76685 | 7.27743 | 7329 ft | 197 kts | 200° |
| 2026-04-27 19:45 | 53.75438 | 7.26917 | 7318 ft | 190 kts | 200° |
| 2026-04-27 19:45 | 53.74224 | 7.26113 | 7319 ft | 186 kts | 200° |
| 2026-04-27 19:45 | 53.73026 | 7.25315 | 7316 ft | 184 kts | 200° |
| 2026-04-27 19:45 | 53.71840 | 7.24524 | 7320 ft | 182 kts | 200° |
| 2026-04-27 19:46 | 53.70665 | 7.23741 | 7321 ft | 182 kts | 200° |
| 2026-04-27 19:46 | 53.69495 | 7.22961 | 7318 ft | 181 kts | 200° |
| 2026-04-27 19:46 | 53.68325 | 7.22184 | 7325 ft | 181 kts | 200° |
| 2026-04-27 19:46 | 53.67150 | 7.21403 | 7325 ft | 181 kts | 201° |
| 2026-04-27 19:47 | 53.65982 | 7.20628 | 7324 ft | 181 kts | 201° |
| 2026-04-27 19:47 | 53.64809 | 7.19848 | 7325 ft | 180 kts | 201° |
| 2026-04-27 19:47 | 53.63638 | 7.19075 | 7324 ft | 180 kts | 201° |
| 2026-04-27 19:47 | 53.62468 | 7.18302 | 7326 ft | 180 kts | 201° |
| 2026-04-27 19:48 | 53.61300 | 7.17530 | 7324 ft | 180 kts | 201° |
| 2026-04-27 19:48 | 53.60135 | 7.16758 | 7325 ft | 180 kts | 201° |
| 2026-04-27 19:48 | 53.58968 | 7.15986 | 7328 ft | 181 kts | 201° |
| 2026-04-27 19:48 | 53.57799 | 7.15215 | 7325 ft | 181 kts | 201° |
| 2026-04-27 19:49 | 53.56630 | 7.14442 | 7327 ft | 180 kts | 201° |
| 2026-04-27 19:49 | 53.55463 | 7.13673 | 7327 ft | 180 kts | 201° |
| 2026-04-27 19:49 | 53.54297 | 7.12907 | 7324 ft | 179 kts | 201° |
| 2026-04-27 19:49 | 53.53131 | 7.12139 | 7325 ft | 180 kts | 201° |
| 2026-04-27 19:50 | 53.51964 | 7.11368 | 7326 ft | 180 kts | 201° |
| 2026-04-27 19:50 | 53.50797 | 7.10599 | 7327 ft | 180 kts | 201° |
| 2026-04-27 19:50 | 53.49626 | 7.09831 | 7326 ft | 181 kts | 201° |
| 2026-04-27 19:50 | 53.48456 | 7.09061 | 7328 ft | 181 kts | 201° |
| 2026-04-27 19:51 | 53.47282 | 7.08287 | 7326 ft | 181 kts | 201° |
| 2026-04-27 19:51 | 53.46109 | 7.07519 | 7328 ft | 180 kts | 201° |
| 2026-04-27 19:51 | 53.44941 | 7.06754 | 7325 ft | 180 kts | 201° |
| 2026-04-27 19:51 | 53.43775 | 7.05990 | 7328 ft | 180 kts | 201° |
| 2026-04-27 19:52 | 53.42610 | 7.05227 | 7329 ft | 180 kts | 201° |
| 2026-04-27 19:52 | 53.41446 | 7.04465 | 7327 ft | 180 kts | 201° |
| 2026-04-27 19:52 | 53.40278 | 7.03703 | 7325 ft | 179 kts | 201° |
| 2026-04-27 19:52 | 53.39116 | 7.02940 | 7326 ft | 179 kts | 201° |
| 2026-04-27 19:53 | 53.36787 | 7.01416 | 7324 ft | 179 kts | 201° |
| 2026-04-27 19:53 | 53.35627 | 7.00659 | 7325 ft | 179 kts | 201° |
| 2026-04-27 19:53 | 53.34467 | 6.99903 | 7325 ft | 179 kts | 201° |
| 2026-04-27 19:54 | 53.33357 | 6.98979 | 7317 ft | 178 kts | 217° |
| 2026-04-27 19:54 | 53.32378 | 6.97671 | 7321 ft | 178 kts | 219° |
| 2026-04-27 19:54 | 53.31407 | 6.96371 | 7320 ft | 178 kts | 219° |
| 2026-04-27 19:54 | 53.30436 | 6.95075 | 7316 ft | 178 kts | 219° |
| 2026-04-27 19:55 | 53.29466 | 6.93778 | 7316 ft | 179 kts | 219° |
| 2026-04-27 19:55 | 53.28497 | 6.92481 | 7316 ft | 178 kts | 219° |
| 2026-04-27 19:55 | 53.27529 | 6.91188 | 7312 ft | 178 kts | 219° |
| 2026-04-27 19:55 | 53.26562 | 6.89897 | 7310 ft | 178 kts | 219° |
| 2026-04-27 19:56 | 53.25592 | 6.88603 | 7300 ft | 178 kts | 219° |
| 2026-04-27 19:56 | 53.24625 | 6.87312 | 7299 ft | 178 kts | 219° |
| 2026-04-27 19:56 | 53.23656 | 6.86022 | 7298 ft | 178 kts | 219° |
| 2026-04-27 19:56 | 53.22689 | 6.84733 | 7296 ft | 178 kts | 219° |
| 2026-04-27 19:57 | 53.21722 | 6.83446 | 7298 ft | 178 kts | 219° |
| 2026-04-27 19:57 | 53.20755 | 6.82160 | 7301 ft | 178 kts | 219° |
| 2026-04-27 19:57 | 53.19773 | 6.80855 | 7302 ft | 178 kts | 219° |
| 2026-04-27 19:57 | 53.18790 | 6.79548 | 7300 ft | 179 kts | 218° |
| 2026-04-27 19:58 | 53.17819 | 6.78258 | 7299 ft | 178 kts | 218° |
| 2026-04-27 19:58 | 53.16850 | 6.76972 | 7299 ft | 178 kts | 218° |
| 2026-04-27 19:58 | 53.15863 | 6.75663 | 7301 ft | 178 kts | 218° |
| 2026-04-27 19:58 | 53.14899 | 6.74385 | 7299 ft | 178 kts | 218° |
| 2026-04-27 19:59 | 53.13930 | 6.73101 | 7300 ft | 178 kts | 218° |
| 2026-04-27 19:59 | 53.12965 | 6.71823 | 7302 ft | 177 kts | 218° |
| 2026-04-27 19:59 | 53.12001 | 6.70546 | 7294 ft | 177 kts | 218° |
| 2026-04-27 19:59 | 53.11036 | 6.69271 | 7301 ft | 177 kts | 218° |
| 2026-04-27 20:00 | 53.10076 | 6.68004 | 7298 ft | 176 kts | 218° |
| 2026-04-27 20:00 | 53.09110 | 6.66729 | 7298 ft | 177 kts | 218° |
| 2026-04-27 20:00 | 53.08146 | 6.65457 | 7292 ft | 177 kts | 218° |
| 2026-04-27 20:00 | 53.07180 | 6.64184 | 7293 ft | 177 kts | 218° |
| 2026-04-27 20:01 | 53.06199 | 6.62889 | 7292 ft | 177 kts | 218° |
| 2026-04-27 20:01 | 53.05233 | 6.61616 | 7291 ft | 177 kts | 218° |
| 2026-04-27 20:01 | 53.04268 | 6.60344 | 7295 ft | 177 kts | 218° |
| 2026-04-27 20:01 | 53.03305 | 6.59076 | 7298 ft | 177 kts | 218° |
| 2026-04-27 20:02 | 53.02352 | 6.57824 | 7298 ft | 177 kts | 217° |
| 2026-04-27 20:02 | 53.01393 | 6.56559 | 7294 ft | 176 kts | 217° |
| 2026-04-27 20:02 | 53.00422 | 6.55286 | 7296 ft | 176 kts | 217° |
| 2026-04-27 20:02 | 52.99462 | 6.54028 | 7296 ft | 175 kts | 217° |
| 2026-04-27 20:03 | 52.98507 | 6.52775 | 7298 ft | 175 kts | 218° |
| 2026-04-27 20:03 | 52.97550 | 6.51519 | 7295 ft | 175 kts | 218° |
| 2026-04-27 20:03 | 52.96592 | 6.50261 | 7291 ft | 176 kts | 218° |
| 2026-04-27 20:03 | 52.95943 | 6.49412 | 7294 ft | 175 kts | 218° |
| 2026-04-27 20:04 | 52.94971 | 6.48141 | 7294 ft | 175 kts | 218° |
| 2026-04-27 20:04 | 52.94011 | 6.46884 | 7290 ft | 175 kts | 218° |
| 2026-04-27 20:04 | 52.93052 | 6.45627 | 7292 ft | 176 kts | 218° |
| 2026-04-27 20:04 | 52.92093 | 6.44373 | 7288 ft | 176 kts | 218° |
| 2026-04-27 20:05 | 52.91120 | 6.43101 | 7286 ft | 176 kts | 218° |
| 2026-04-27 20:05 | 52.90158 | 6.41845 | 7283 ft | 175 kts | 218° |
| 2026-04-27 20:05 | 52.89202 | 6.40597 | 7284 ft | 175 kts | 218° |
| 2026-04-27 20:05 | 52.88244 | 6.39348 | 7282 ft | 175 kts | 218° |
| 2026-04-27 20:06 | 52.87288 | 6.38105 | 7282 ft | 175 kts | 218° |
| 2026-04-27 20:06 | 52.86332 | 6.36857 | 7281 ft | 175 kts | 218° |
| 2026-04-27 20:06 | 52.85373 | 6.35608 | 7283 ft | 175 kts | 218° |
| 2026-04-27 20:06 | 52.84413 | 6.34358 | 7278 ft | 175 kts | 218° |
| 2026-04-27 20:07 | 52.83499 | 6.33013 | 7269 ft | 176 kts | 231° |
| 2026-04-27 20:07 | 52.82796 | 6.31359 | 7275 ft | 176 kts | 234° |
| 2026-04-27 20:07 | 52.82096 | 6.29693 | 7273 ft | 176 kts | 234° |
| 2026-04-27 20:07 | 52.81399 | 6.28029 | 7272 ft | 176 kts | 234° |
| 2026-04-27 20:08 | 52.80702 | 6.26368 | 7274 ft | 175 kts | 235° |
| 2026-04-27 20:08 | 52.80006 | 6.24711 | 7271 ft | 176 kts | 235° |
| 2026-04-27 20:08 | 52.79308 | 6.23053 | 7271 ft | 176 kts | 234° |
| 2026-04-27 20:08 | 52.78599 | 6.21368 | 7271 ft | 176 kts | 234° |
| 2026-04-27 20:09 | 52.77888 | 6.19678 | 7272 ft | 175 kts | 234° |
| 2026-04-27 20:09 | 52.77196 | 6.18037 | 7271 ft | 175 kts | 234° |
| 2026-04-27 20:09 | 52.76498 | 6.16381 | 7268 ft | 175 kts | 234° |
| 2026-04-27 20:09 | 52.75795 | 6.14717 | 7267 ft | 177 kts | 234° |
| 2026-04-27 20:10 | 52.75097 | 6.13063 | 7270 ft | 176 kts | 235° |
| 2026-04-27 20:10 | 52.74398 | 6.11406 | 7268 ft | 176 kts | 234° |
| 2026-04-27 20:10 | 52.73697 | 6.09749 | 7270 ft | 176 kts | 234° |
| 2026-04-27 20:10 | 52.72997 | 6.08096 | 7270 ft | 176 kts | 234° |
| 2026-04-27 20:11 | 52.72291 | 6.06424 | 7267 ft | 176 kts | 235° |
| 2026-04-27 20:11 | 52.71600 | 6.04790 | 7268 ft | 176 kts | 234° |
| 2026-04-27 20:11 | 52.70900 | 6.03138 | 7265 ft | 176 kts | 234° |
| 2026-04-27 20:11 | 52.70188 | 6.01463 | 7268 ft | 176 kts | 234° |
| 2026-04-27 20:12 | 52.69485 | 5.99808 | 7268 ft | 177 kts | 234° |
| 2026-04-27 20:12 | 52.68783 | 5.98153 | 7268 ft | 176 kts | 235° |
| 2026-04-27 20:12 | 52.68079 | 5.96497 | 7264 ft | 176 kts | 235° |
| 2026-04-27 20:12 | 52.67372 | 5.94832 | 7265 ft | 175 kts | 235° |
| 2026-04-27 20:13 | 52.66659 | 5.93155 | 7267 ft | 176 kts | 235° |
| 2026-04-27 20:13 | 52.65946 | 5.91481 | 7266 ft | 176 kts | 235° |
| 2026-04-27 20:13 | 52.65246 | 5.89838 | 7268 ft | 176 kts | 235° |
| 2026-04-27 20:13 | 52.64532 | 5.88165 | 7264 ft | 176 kts | 235° |
| 2026-04-27 20:14 | 52.63820 | 5.86497 | 7265 ft | 176 kts | 235° |
| 2026-04-27 20:14 | 52.63117 | 5.84851 | 7267 ft | 176 kts | 235° |
| 2026-04-27 20:14 | 52.62414 | 5.83206 | 7266 ft | 176 kts | 235° |
| 2026-04-27 20:14 | 52.61707 | 5.81544 | 7270 ft | 176 kts | 235° |
| 2026-04-27 20:15 | 52.61002 | 5.79898 | 7267 ft | 175 kts | 235° |
| 2026-04-27 20:15 | 52.60299 | 5.78259 | 7267 ft | 175 kts | 235° |
| 2026-04-27 20:15 | 52.59586 | 5.76596 | 7269 ft | 176 kts | 235° |
| 2026-04-27 20:15 | 52.58881 | 5.74952 | 7269 ft | 176 kts | 235° |
| 2026-04-27 20:16 | 52.58176 | 5.73306 | 7268 ft | 176 kts | 235° |
| 2026-04-27 20:16 | 52.57472 | 5.71665 | 7268 ft | 176 kts | 235° |
| 2026-04-27 20:16 | 52.56767 | 5.70020 | 7270 ft | 176 kts | 235° |
| 2026-04-27 20:16 | 52.56051 | 5.68355 | 7271 ft | 176 kts | 235° |
| 2026-04-27 20:17 | 52.55345 | 5.66712 | 7272 ft | 176 kts | 235° |
| 2026-04-27 20:17 | 52.54638 | 5.65068 | 7270 ft | 176 kts | 235° |
| 2026-04-27 20:17 | 52.53929 | 5.63422 | 7272 ft | 176 kts | 235° |
| 2026-04-27 20:17 | 52.53451 | 5.62309 | 7273 ft | 176 kts | 235° |
| 2026-04-27 20:18 | 52.52504 | 5.60111 | 7272 ft | 177 kts | 235° |
| 2026-04-27 20:18 | 52.52023 | 5.58996 | 7275 ft | 176 kts | 235° |
| 2026-04-27 20:18 | 52.51202 | 5.57463 | 7270 ft | 177 kts | 225° |
| 2026-04-27 20:18 | 52.50315 | 5.56051 | 7274 ft | 177 kts | 225° |
| 2026-04-27 20:19 | 52.49420 | 5.54573 | 7270 ft | 177 kts | 226° |
| 2026-04-27 20:19 | 52.48567 | 5.53126 | 7271 ft | 177 kts | 227° |
| 2026-04-27 20:19 | 52.47710 | 5.51666 | 7271 ft | 177 kts | 226° |
| 2026-04-27 20:19 | 52.46853 | 5.50206 | 7268 ft | 177 kts | 227° |
| 2026-04-27 20:20 | 52.45996 | 5.48749 | 7269 ft | 177 kts | 227° |
| 2026-04-27 20:20 | 52.45127 | 5.47271 | 7261 ft | 178 kts | 226° |
| 2026-04-27 20:20 | 52.44240 | 5.45762 | 7125 ft | 184 kts | 227° |
| 2026-04-27 20:20 | 52.43343 | 5.44237 | 7000 ft | 187 kts | 227° |
| 2026-04-27 20:21 | 52.42437 | 5.42698 | 6875 ft | 189 kts | 227° |
| 2026-04-27 20:21 | 52.41522 | 5.41146 | 6753 ft | 190 kts | 227° |
| 2026-04-27 20:21 | 52.40590 | 5.39568 | 6629 ft | 190 kts | 227° |
| 2026-04-27 20:21 | 52.39668 | 5.38008 | 6497 ft | 191 kts | 227° |
| 2026-04-27 20:22 | 52.38734 | 5.36428 | 6364 ft | 191 kts | 227° |
| 2026-04-27 20:22 | 52.37796 | 5.34841 | 6231 ft | 191 kts | 227° |
| 2026-04-27 20:22 | 52.36858 | 5.33257 | 6098 ft | 191 kts | 227° |
| 2026-04-27 20:22 | 52.35918 | 5.31671 | 5964 ft | 191 kts | 227° |
| 2026-04-27 20:23 | 52.34978 | 5.30084 | 5834 ft | 192 kts | 227° |
| 2026-04-27 20:23 | 52.34068 | 5.28549 | 5709 ft | 190 kts | 227° |
| 2026-04-27 20:23 | 52.33131 | 5.26971 | 5572 ft | 191 kts | 227° |
| 2026-04-27 20:23 | 52.32205 | 5.25410 | 5445 ft | 191 kts | 227° |
| 2026-04-27 20:24 | 52.31224 | 5.23757 | 5306 ft | 191 kts | 227° |
| 2026-04-27 20:24 | 52.30312 | 5.22223 | 5186 ft | 192 kts | 227° |
| 2026-04-27 20:24 | 52.29383 | 5.20660 | 5058 ft | 192 kts | 227° |
| 2026-04-27 20:24 | 52.28438 | 5.19073 | 4924 ft | 193 kts | 227° |
| 2026-04-27 20:25 | 52.27495 | 5.17491 | 4783 ft | 193 kts | 227° |
| 2026-04-27 20:25 | 52.26562 | 5.15923 | 4654 ft | 193 kts | 227° |
| 2026-04-27 20:25 | 52.25621 | 5.14346 | 4522 ft | 194 kts | 227° |
| 2026-04-27 20:25 | 52.24985 | 5.13283 | 4435 ft | 194 kts | 227° |
| 2026-04-27 20:26 | 52.24050 | 5.11713 | 4307 ft | 194 kts | 227° |
| 2026-04-27 20:26 | 52.23108 | 5.10134 | 4177 ft | 194 kts | 227° |
| 2026-04-27 20:26 | 52.22151 | 5.08531 | 3998 ft | 195 kts | 227° |
| 2026-04-27 20:26 | 52.21193 | 5.06932 | 3815 ft | 196 kts | 227° |
| 2026-04-27 20:27 | 52.20106 | 5.05118 | 3614 ft | 196 kts | 227° |
| 2026-04-27 20:27 | 52.19272 | 5.03725 | 3457 ft | 196 kts | 227° |
| 2026-04-27 20:27 | 52.18319 | 5.02134 | 3277 ft | 196 kts | 226° |
| 2026-04-27 20:27 | 52.17356 | 5.00528 | 3094 ft | 196 kts | 226° |
| 2026-04-27 20:28 | 52.16398 | 4.98934 | 2918 ft | 196 kts | 225° |
| 2026-04-27 20:28 | 52.15448 | 4.97355 | 2738 ft | 196 kts | 225° |
| 2026-04-27 20:28 | 52.14484 | 4.95748 | 2554 ft | 195 kts | 225° |
| 2026-04-27 20:28 | 52.13913 | 4.94586 | 2420 ft | 195 kts | 242° |
| 2026-04-27 20:29 | 52.13587 | 4.91689 | 2185 ft | 194 kts | 271° |
| 2026-04-27 20:29 | 52.13584 | 4.89465 | 2002 ft | 194 kts | 272° |
| 2026-04-27 20:29 | 52.13602 | 4.87293 | 1996 ft | 186 kts | 272° |
| 2026-04-27 20:29 | 52.13620 | 4.85159 | 2000 ft | 183 kts | 272° |
| 2026-04-27 20:30 | 52.13635 | 4.83075 | 1999 ft | 182 kts | 272° |
| 2026-04-27 20:30 | 52.13658 | 4.81026 | 2002 ft | 180 kts | 275° |
| 2026-04-27 20:30 | 52.14093 | 4.79161 | 1990 ft | 173 kts | 314° |
| 2026-04-27 20:30 | 52.15022 | 4.77968 | 2009 ft | 169 kts | 331° |
| 2026-04-27 20:31 | 52.16032 | 4.76938 | 2000 ft | 168 kts | 337° |
| 2026-04-27 20:31 | 52.17211 | 4.76637 | 2005 ft | 161 kts | 6° |
| 2026-04-27 20:31 | 52.18297 | 4.76740 | 2007 ft | 161 kts | 8° |
| 2026-04-27 20:31 | 52.19468 | 4.76851 | 1924 ft | 164 kts | 7° |
| 2026-04-27 20:32 | 52.20608 | 4.76960 | 1700 ft | 163 kts | 7° |
| 2026-04-27 20:32 | 52.21379 | 4.77025 | 1543 ft | 148 kts | 7° |
| 2026-04-27 20:32 | 52.22305 | 4.77103 | 1360 ft | 129 kts | 8° |
| 2026-04-27 20:32 | 52.23187 | 4.77189 | 1190 ft | 119 kts | 9° |
| 2026-04-27 20:33 | 52.23983 | 4.77263 | 1031 ft | 113 kts | 9° |
| 2026-04-27 20:33 | 52.24745 | 4.77334 | 893 ft | 103 kts | 8° |
| 2026-04-27 20:33 | 52.25477 | 4.77401 | 738 ft | 95 kts | 8° |
| 2026-04-27 20:33 | 52.26098 | 4.77456 | 625 ft | 88 kts | 8° |
| 2026-04-27 20:34 | 52.26698 | 4.77498 | 629 ft | 85 kts | 7° |
| 2026-04-27 20:34 | 52.27305 | 4.77533 | 591 ft | 86 kts | 7° |
| 2026-04-27 20:34 | 52.27903 | 4.77568 | 528 ft | 80 kts | 8° |
| 2026-04-27 20:34 | 52.28462 | 4.77627 | 428 ft | 80 kts | 9° |
| 2026-04-27 20:35 | 52.29007 | 4.77693 | 300 ft | 76 kts | 8° |
| 2026-04-27 20:35 | 52.29519 | 4.77838 | 162 ft | 72 kts | 24° |
| 2026-04-27 20:35 | 52.29962 | 4.78255 | 57 ft | 73 kts | 37° |
| 2026-04-27 20:35 | 52.30336 | 4.78776 | -2 ft | 67 kts | 37° |
| 2026-04-27 20:36 | 52.30616 | 4.79169 | -9 ft | 35 kts | 43° |
| 2026-04-27 20:36 | 52.30751 | 4.79366 | -9 ft | 21 kts | 41° |
| 2026-04-27 20:36 | 52.30861 | 4.79525 | -9 ft | 19 kts | 41° |
| 2026-04-27 20:36 | 52.30883 | 4.79647 | -9 ft | 9 kts | 123° |
| 2026-04-27 20:37 | 52.30838 | 4.79731 | -7 ft | 10 kts | 130° |
| 2026-04-27 20:37 | 52.30834 | 4.79831 | -7 ft | 8 kts | 50° |
| 2026-04-27 20:37 | 52.30880 | 4.79898 | -7 ft | 11 kts | 41° |
| 2026-04-27 20:37 | 52.30949 | 4.79998 | -7 ft | 14 kts | 40° |
| 2026-04-27 20:38 | 52.31022 | 4.80104 | -7 ft | 12 kts | 41° |
| 2026-04-27 20:38 | 52.31056 | 4.80163 | -7 ft | 9 kts | 64° |
| 2026-04-27 20:38 | 52.31049 | 4.80252 | -6 ft | 9 kts | 128° |
| 2026-04-27 20:38 | 52.31060 | 4.80329 | -6 ft | 7 kts | 41° |
| 2026-04-27 20:39 | 52.31095 | 4.80380 | -6 ft | 6 kts | 41° |
| 2026-04-27 20:39 | 52.31127 | 4.80372 | -6 ft | 6 kts | 313° |
| 2026-04-27 20:39 | 52.31137 | 4.80353 | -6 ft | 0 kts | 311° |